Bernalillo, NM (87004)

2:49 PM MDT on May 23, 2017 (GMT -0600)
Roadrunner Trail | | Change Station
Active Advisory: Fire Weather Watch

Elev 5272 ft 35.32 °N, 106.52 °W | Updated 12 seconds ago

Clear
Clear
72.5 °F
Feels Like 75 °F
N
7.4
Wind Variable Wind from NW
Gusts 9.8 mph

Today
High -- | Low -- °F
--% Chance of Precip.
Yesterday
High -- | Low -- °F
Precip. -- in
Pressure 30.11 in
Visibility 10.0 miles
Clouds Scattered Clouds 9000 ft
Heat Index 75 °F
Dew Point 32 °F
Humidity 22%
Rainfall 0.00 in
Snow Depth Not available.
5:56 AM 8:09 PM
Waning Crescent, 6% visible
METAR KAEG 231947Z 00000KT 10SM SCT090 21/03 A3011
Pressure 30.11 in
Visibility 10.0 miles
Clouds Scattered Clouds 9000 ft
Heat Index 75 °F
Dew Point 32 °F
Humidity 22%
Rainfall 0.00 in
Snow Depth Not available.
5:56 AM 8:09 PM
Waning Crescent, 6% visible
METAR KAEG 231947Z 00000KT 10SM SCT090 21/03 A3011

Get Your Daily Forecast Email!

Thanks for signing up!

Be on the lookout for a verification email in your inbox.

You'll start receiving severe weather alerts in your inbox..

×

10-Day Weather Forecast

Almanac

Astronomy

May. 23, 2017 Rise Set
Actual Time
Civil Twilight
Nautical Twilight
Astronomical Twilight
Moon
Length of Visible Light
Length of Day
Tomorrow will be .
, % of the Moon is Illuminated

Today's Extremes

State Highs State Lows

Community

WunderPhotos

Category 6

Welcome to Category 6. This is the collective home for Weather Underground's featured writeups by Dr. Jeff Masters (right), Bob Henson (left), Chris Burt, and other regular contributors.

Nearby

Air Quality

  Air Quality AQ Index Pollutant
Not available.

Snow Depth

Station Depth Elevation

Earthquake Activity

City Distance Mag. Time & Date
Minimum magnitude displayed is 2.5.

Coastal Water Temperatures

Place Temperature

Stations

Nearby Weather Stations

Station Location Temp. Windchill Dew Point Humidity Wind Precip. Elev Updated Type
                   

Watches & Warnings

Fire Weather Watch
Issued: 3:39 AM MDT May. 23, 2017 – National Weather Service

... Fire Weather Watch remains in effect from Thursday afternoon
through Thursday evening...

* area and timing... northwest and west Central Highlands, middle
Rio Grande Valley and Sandia, Manzano and Gallinas Mountains.
Critical conditions are expected to develop late Thursday
morning and become widespread early in the afternoon before
diminishing after sunset Thursday evening.

* 20 foot winds... southwest to west 20 to 35 mph with gusts to
around 40 or 45 mph.

* Relative humidity... ranging from 5 to 10 percent.

* Impacts... any fires that develop will likely spread rapidly.
Outdoor burning is not recommended.

Precautionary/preparedness actions...

Please advise the appropriate officials or fire crews in the
field of this Fire Weather Watch.